createdAt,value
2018-05-21T00:01:06.496Z,13.80
2018-05-21T00:03:35.359Z,13.60
2018-05-21T00:06:03.468Z,13.50
2018-05-21T00:08:31.554Z,13.50
2018-05-21T00:10:59.659Z,13.40
2018-05-21T00:13:27.863Z,13.40
2018-05-21T00:15:56.176Z,13.50
2018-05-21T00:18:24.267Z,13.20
2018-05-21T00:20:53.257Z,13.20
2018-05-21T00:23:21.983Z,13.30
2018-05-21T00:25:50.336Z,13.20
2018-05-21T00:28:18.606Z,13.20
2018-05-21T00:30:46.731Z,13.00
2018-05-21T00:33:14.800Z,13.00
2018-05-21T00:35:44.504Z,12.80
2018-05-21T00:38:12.649Z,12.60
2018-05-21T00:40:40.755Z,12.80
2018-05-21T00:43:09.649Z,13.00
2018-05-21T00:45:37.736Z,13.20
2018-05-21T00:48:05.825Z,13.40
2018-05-21T00:50:34.181Z,13.00
2018-05-21T00:53:02.296Z,12.90
2018-05-21T00:55:39.216Z,12.70
2018-05-21T00:58:07.316Z,12.90
2018-05-21T01:00:35.375Z,12.90
2018-05-21T01:03:04.252Z,12.90
2018-05-21T01:05:32.444Z,12.70
2018-05-21T01:08:00.517Z,12.70
2018-05-21T01:10:30.276Z,12.70
2018-05-21T01:12:58.356Z,12.60
2018-05-21T01:15:27.228Z,12.60
2018-05-21T01:17:55.305Z,12.40
2018-05-21T01:20:24.211Z,12.40
2018-05-21T01:22:52.299Z,12.50
2018-05-21T01:25:20.391Z,12.40
2018-05-21T01:27:48.455Z,12.40
2018-05-21T01:30:16.552Z,12.30
2018-05-21T01:32:44.620Z,12.10
2018-05-21T01:35:13.453Z,12.10
2018-05-21T01:37:41.547Z,12.10
2018-05-21T01:40:09.622Z,12.30
2018-05-21T01:42:37.699Z,12.20
2018-05-21T01:45:05.782Z,12.10
2018-05-21T01:47:34.649Z,12.10
2018-05-21T01:50:02.726Z,12.10
2018-05-21T01:52:30.851Z,12.00
2018-05-21T01:54:59.170Z,12.00
2018-05-21T01:57:28.163Z,11.80
2018-05-21T01:59:56.348Z,12.00
2018-05-21T02:02:25.543Z,11.90
2018-05-21T02:04:53.643Z,11.90
2018-05-21T02:07:21.720Z,12.10
2018-05-21T02:09:50.660Z,12.40
2018-05-21T02:12:18.724Z,12.60
2018-05-21T02:14:46.835Z,12.50
2018-05-21T02:17:15.066Z,12.10
2018-05-21T02:19:43.180Z,11.70
2018-05-21T02:22:11.401Z,11.30
2018-05-21T02:24:40.304Z,11.20
2018-05-21T02:27:08.466Z,11.30
2018-05-21T02:29:37.384Z,11.20
2018-05-21T02:32:06.172Z,11.10
2018-05-21T02:34:35.731Z,11.40
2018-05-21T02:37:03.969Z,11.40
2018-05-21T02:39:32.037Z,11.60
2018-05-21T02:42:00.135Z,11.70
2018-05-21T02:44:28.196Z,11.70
2018-05-21T02:46:57.376Z,12.00
2018-05-21T02:49:25.584Z,12.10
2018-05-21T02:51:53.653Z,11.90
2018-05-21T02:54:21.742Z,11.80
2018-05-21T02:56:51.648Z,12.00
2018-05-21T02:59:24.061Z,12.20
2018-05-21T03:01:52.140Z,12.20
2018-05-21T03:04:20.240Z,12.10
2018-05-21T03:06:48.327Z,11.90
2018-05-21T03:09:17.186Z,11.60
2018-05-21T03:11:45.264Z,11.60
2018-05-21T03:14:13.341Z,11.90
2018-05-21T03:16:41.449Z,12.00
2018-05-21T03:19:10.680Z,12.20
2018-05-21T03:21:39.553Z,11.90
2018-05-21T03:24:07.631Z,11.70
2018-05-21T03:26:35.724Z,11.20
2018-05-21T03:29:03.789Z,11.20
2018-05-21T03:31:32.559Z,11.20
2018-05-21T03:34:00.772Z,11.30
2018-05-21T03:36:30.824Z,11.30
2018-05-21T03:39:03.329Z,11.10
2018-05-21T03:41:31.989Z,11.10
2018-05-21T03:44:00.100Z,11.40
2018-05-21T03:46:28.321Z,11.60
2018-05-21T03:48:57.049Z,11.60
2018-05-21T03:51:25.284Z,11.60
2018-05-21T03:53:53.514Z,11.40
2018-05-21T03:56:22.300Z,11.40
2018-05-21T03:59:09.132Z,11.30
2018-05-21T04:01:55.933Z,11.30
2018-05-21T04:04:24.045Z,11.30
2018-05-21T04:06:52.505Z,11.10
2018-05-21T04:09:20.692Z,11.20
2018-05-21T04:11:49.789Z,11.20
2018-05-21T04:14:17.868Z,11.40
2018-05-21T04:16:45.971Z,11.40
2018-05-21T04:19:14.079Z,11.40
2018-05-21T04:21:42.196Z,11.30
2018-05-21T04:24:10.283Z,11.50
2018-05-21T04:26:39.304Z,11.40
2018-05-21T04:29:07.383Z,11.70
2018-05-21T04:31:35.473Z,11.90
2018-05-21T04:34:05.318Z,12.00
2018-05-21T04:36:34.457Z,12.20
2018-05-21T04:39:02.411Z,12.00
2018-05-21T04:41:30.484Z,12.00
2018-05-21T04:43:58.877Z,12.20
2018-05-21T04:46:26.952Z,12.20
2018-05-21T04:48:55.771Z,12.40
2018-05-21T04:51:23.896Z,12.40
2018-05-21T04:53:51.992Z,12.60
2018-05-21T04:56:20.063Z,12.70
2018-05-21T04:58:48.165Z,12.50
2018-05-21T05:01:16.340Z,12.70
2018-05-21T05:03:44.461Z,12.90
2018-05-21T05:06:13.203Z,13.00
2018-05-21T05:08:41.296Z,13.10
2018-05-21T05:11:11.045Z,13.30
2018-05-21T05:13:39.143Z,13.40
2018-05-21T05:16:08.326Z,13.50
2018-05-21T05:18:36.851Z,13.70
2018-05-21T05:21:04.961Z,13.80
2018-05-21T05:23:33.032Z,13.90
2018-05-21T05:26:01.197Z,13.90
2018-05-21T05:28:29.496Z,14.10
2018-05-21T05:30:57.580Z,14.20
2018-05-21T05:33:25.656Z,14.30
2018-05-21T05:35:55.605Z,14.40
2018-05-21T05:38:25.640Z,14.50
2018-05-21T05:40:53.708Z,14.50
2018-05-21T05:43:22.608Z,14.60
2018-05-21T05:45:51.457Z,14.60
2018-05-21T05:48:19.572Z,14.60
2018-05-21T05:50:47.669Z,14.70
2018-05-21T05:53:15.747Z,14.70
2018-05-21T05:55:43.836Z,14.70
2018-05-21T05:58:12.896Z,14.70
2018-05-21T06:00:41.033Z,14.70
2018-05-21T06:03:09.144Z,14.70
2018-05-21T06:05:37.242Z,14.80
2018-05-21T06:08:05.336Z,14.90
2018-05-21T06:10:33.436Z,14.90
2018-05-21T06:13:01.507Z,15.00
2018-05-21T06:15:31.164Z,15.00
2018-05-21T06:17:59.257Z,15.00
2018-05-21T06:20:27.356Z,15.00
2018-05-21T06:22:55.429Z,15.00
2018-05-21T06:25:24.284Z,15.10
2018-05-21T06:27:52.372Z,15.20
2018-05-21T06:30:20.450Z,15.30
2018-05-21T06:32:48.546Z,15.30
2018-05-21T06:35:16.761Z,15.40
2018-05-21T06:37:44.849Z,15.60
2018-05-21T06:40:12.932Z,15.60
2018-05-21T06:42:41.029Z,15.70
2018-05-21T06:45:09.104Z,15.80
2018-05-21T06:47:38.415Z,15.90
2018-05-21T06:50:06.585Z,16.00
2018-05-21T06:52:35.445Z,16.00
2018-05-21T06:55:03.540Z,16.10
2018-05-21T06:57:32.424Z,16.20
2018-05-21T07:00:02.164Z,16.30
2018-05-21T07:02:30.253Z,16.40
2018-05-21T07:04:58.341Z,16.40
2018-05-21T07:07:26.440Z,16.40
2018-05-21T07:09:54.771Z,16.50
2018-05-21T07:12:22.851Z,16.50
2018-05-21T07:14:50.947Z,16.60
2018-05-21T07:17:19.020Z,16.60
2018-05-21T07:48:22.253Z,16.90
2018-05-21T07:50:52.024Z,17.00
2018-05-21T07:53:20.125Z,17.00
2018-05-21T07:55:48.272Z,17.00
2018-05-21T07:58:16.390Z,17.10
2018-05-21T08:00:44.464Z,17.20
2018-05-21T08:03:12.555Z,17.30
2018-05-21T08:05:40.729Z,17.30
2018-05-21T08:08:08.844Z,17.40
2018-05-21T08:10:36.926Z,17.50
2018-05-21T08:13:06.033Z,17.50
2018-05-21T08:15:34.771Z,17.60
2018-05-21T08:18:02.981Z,17.70
2018-05-21T08:20:31.056Z,17.80
2018-05-21T08:22:59.179Z,17.90
2018-05-21T08:25:27.988Z,18.00
2018-05-21T08:27:56.802Z,18.10
2018-05-21T08:30:25.006Z,18.20
2018-05-21T08:32:53.799Z,18.30
2018-05-21T08:35:25.172Z,18.30
2018-05-21T08:37:53.346Z,18.40
2018-05-21T08:40:21.700Z,18.50
2018-05-21T08:42:49.839Z,18.70
2018-05-21T08:45:18.913Z,18.80
2018-05-21T08:47:47.101Z,18.70
2018-05-21T08:50:16.075Z,18.70
2018-05-21T08:52:44.364Z,18.70
2018-05-21T08:55:14.261Z,18.90
2018-05-21T08:57:47.356Z,18.90
2018-05-21T09:00:15.965Z,18.90
2018-05-21T09:02:44.808Z,18.90
2018-05-21T09:05:12.900Z,18.90
2018-05-21T09:07:42.904Z,19.10
2018-05-21T09:10:11.440Z,19.10
2018-05-21T09:12:42.211Z,19.10
2018-05-21T09:15:11.413Z,19.20
2018-05-21T09:17:39.510Z,19.20
2018-05-21T09:20:09.300Z,19.30
2018-05-21T09:22:38.396Z,19.40
2018-05-21T09:25:10.999Z,19.30
2018-05-21T09:27:39.945Z,19.40
2018-05-21T09:30:08.160Z,19.50
2018-05-21T09:32:37.148Z,19.50
2018-05-21T09:35:05.248Z,19.30
2018-05-21T09:37:33.632Z,19.30
2018-05-21T09:40:03.006Z,19.40
2018-05-21T09:42:31.136Z,19.50
2018-05-21T09:44:59.483Z,19.60
2018-05-21T09:47:27.647Z,19.60
2018-05-21T09:49:55.949Z,19.70
2018-05-21T09:52:25.298Z,19.70
2018-05-21T09:54:53.775Z,19.80
2018-05-21T09:57:22.537Z,19.90
2018-05-21T09:59:50.850Z,20.00
2018-05-21T10:02:19.111Z,20.00
2018-05-21T10:04:47.918Z,20.00
2018-05-21T10:07:17.010Z,20.00
2018-05-21T10:09:45.230Z,20.00
2018-05-21T10:12:14.202Z,20.10
2018-05-21T10:14:42.264Z,20.40
2018-05-21T10:17:11.061Z,20.40
2018-05-21T10:19:39.128Z,20.50
2018-05-21T10:22:07.211Z,20.60
2018-05-21T10:24:36.125Z,20.50
2018-05-21T10:27:04.399Z,20.60
2018-05-21T10:29:33.920Z,20.70
2018-05-21T10:32:02.852Z,20.70
2018-05-21T10:34:31.135Z,20.80
2018-05-21T10:36:59.536Z,20.80
2018-05-21T10:39:28.380Z,20.80
2018-05-21T10:41:56.459Z,20.90
2018-05-21T10:44:24.812Z,20.90
2018-05-21T10:46:54.539Z,20.90
2018-05-21T10:49:23.185Z,20.90
2018-05-21T10:51:51.532Z,20.80
2018-05-21T10:54:19.641Z,20.80
2018-05-21T10:56:47.929Z,21.00
2018-05-21T10:59:16.051Z,21.10
2018-05-21T11:01:44.367Z,21.10
2018-05-21T11:04:12.511Z,21.20
2018-05-21T11:06:42.456Z,21.20
2018-05-21T11:09:12.042Z,21.20
2018-05-21T11:11:40.300Z,21.10
2018-05-21T11:14:08.440Z,21.20
2018-05-21T11:16:36.529Z,21.30
2018-05-21T11:19:04.835Z,21.40
2018-05-21T11:21:32.972Z,21.60
2018-05-21T11:24:01.085Z,21.60
2018-05-21T11:26:29.261Z,21.80
2018-05-21T11:28:58.144Z,21.80
2018-05-21T11:31:26.413Z,21.70
2018-05-21T11:33:55.261Z,21.80
2018-05-21T11:36:23.342Z,21.80
2018-05-21T11:38:52.300Z,21.80
2018-05-21T11:41:20.639Z,21.90
2018-05-21T11:43:49.724Z,22.00
2018-05-21T11:46:18.738Z,22.00
2018-05-21T11:48:46.813Z,22.10
2018-05-21T11:51:15.140Z,22.20
2018-05-21T11:53:43.334Z,22.30
2018-05-21T11:56:12.073Z,22.60
2018-05-21T11:58:40.229Z,22.90
2018-05-21T12:01:09.041Z,23.30
2018-05-21T12:03:38.284Z,23.80
2018-05-21T12:06:06.516Z,24.20
2018-05-21T12:08:36.182Z,24.60
2018-05-21T12:11:05.705Z,24.90
2018-05-21T12:13:33.840Z,25.10
2018-05-21T12:16:02.100Z,24.80
2018-05-21T12:18:30.192Z,25.10
2018-05-21T12:20:58.775Z,25.40
2018-05-21T12:23:27.537Z,25.60
2018-05-21T12:25:57.463Z,26.00
2018-05-21T12:28:25.761Z,26.40
2018-05-21T12:30:56.520Z,26.50
2018-05-21T12:33:24.689Z,26.50
2018-05-21T12:35:53.012Z,26.50
2018-05-21T12:38:21.968Z,26.90
2018-05-21T12:40:51.014Z,27.10
2018-05-21T12:43:19.345Z,27.30
2018-05-21T12:45:48.113Z,27.30
2018-05-21T12:48:16.212Z,27.20
2018-05-21T12:50:44.339Z,27.50
2018-05-21T12:53:12.428Z,27.60
2018-05-21T12:55:40.644Z,27.70
2018-05-21T12:58:08.880Z,27.90
2018-05-21T13:00:40.595Z,28.10
2018-05-21T13:03:09.428Z,28.20
2018-05-21T13:05:38.560Z,28.30
2018-05-21T13:08:06.751Z,28.40
2018-05-21T13:10:35.823Z,28.20
2018-05-21T13:13:03.892Z,28.20
2018-05-21T13:15:32.128Z,28.20
2018-05-21T13:18:00.212Z,28.00
2018-05-21T13:20:29.008Z,27.90
2018-05-21T13:22:57.096Z,27.70
2018-05-21T13:25:25.500Z,27.20
2018-05-21T13:27:55.069Z,27.00
2018-05-21T13:30:23.272Z,26.90
2018-05-21T13:32:51.777Z,26.90
2018-05-21T13:35:19.876Z,27.00
2018-05-21T13:37:47.953Z,27.20
2018-05-21T13:40:16.091Z,27.30
2018-05-21T13:42:44.301Z,27.50
2018-05-21T13:45:12.375Z,27.60
2018-05-21T13:47:40.509Z,27.30
2018-05-21T13:50:09.357Z,26.90
2018-05-21T13:52:38.217Z,26.70
2018-05-21T13:55:06.391Z,26.60
2018-05-21T13:57:34.471Z,26.70
2018-05-21T14:00:02.549Z,26.70
2018-05-21T14:02:30.642Z,26.30
2018-05-21T14:04:59.007Z,26.10
2018-05-21T14:07:27.224Z,26.10
2018-05-21T14:09:56.168Z,26.10
2018-05-21T14:12:26.310Z,26.30
2018-05-21T14:14:54.368Z,26.60
2018-05-21T14:17:22.534Z,26.90
2018-05-21T14:19:50.952Z,27.00
2018-05-21T14:22:19.051Z,26.80
2018-05-21T14:24:47.206Z,26.90
2018-05-21T14:27:15.418Z,26.90
2018-05-21T14:29:44.215Z,26.90
2018-05-21T14:32:12.370Z,26.70
2018-05-21T14:34:40.470Z,26.50
2018-05-21T14:37:08.577Z,26.50
2018-05-21T14:39:36.662Z,26.40
2018-05-21T14:42:04.778Z,26.30
2018-05-21T14:44:32.871Z,26.20
2018-05-21T14:47:00.984Z,26.10
2018-05-21T14:49:29.063Z,25.90
2018-05-21T14:51:57.146Z,26.00
2018-05-21T14:54:25.235Z,26.00
2018-05-21T14:56:53.433Z,25.90
2018-05-21T14:59:22.552Z,25.80
2018-05-21T15:01:50.667Z,25.90
2018-05-21T15:04:19.444Z,26.00
2018-05-21T15:06:48.176Z,26.00
2018-05-21T15:09:16.259Z,26.10
2018-05-21T15:11:44.351Z,26.10
2018-05-21T15:14:12.604Z,26.10
2018-05-21T15:16:40.761Z,26.10
2018-05-21T15:19:08.873Z,26.10
2018-05-21T15:21:37.020Z,26.20
2018-05-21T15:24:06.144Z,26.30
2018-05-21T15:26:35.195Z,26.30
2018-05-21T15:29:04.076Z,26.20
2018-05-21T15:31:32.185Z,26.20
2018-05-21T15:34:01.255Z,26.20
2018-05-21T15:36:30.039Z,26.10
2018-05-21T15:38:58.876Z,26.20
2018-05-21T15:41:27.206Z,26.20
2018-05-21T15:43:55.288Z,26.30
2018-05-21T15:46:23.581Z,26.30
2018-05-21T15:48:51.742Z,26.40
2018-05-21T15:51:20.475Z,26.40
2018-05-21T15:53:48.703Z,26.30
2018-05-21T15:56:17.587Z,26.40
2018-05-21T15:58:45.694Z,26.40
2018-05-21T16:01:13.768Z,26.50
2018-05-21T16:03:42.648Z,26.40
2018-05-21T16:06:12.785Z,26.40
2018-05-21T16:08:41.144Z,26.20
2018-05-21T16:11:09.145Z,26.10
2018-05-21T16:13:37.292Z,26.10
2018-05-21T16:16:06.028Z,26.20
2018-05-21T16:18:35.169Z,26.40
2018-05-21T16:21:04.449Z,26.50
2018-05-21T16:23:33.177Z,26.60
2018-05-21T16:26:02.319Z,26.60
2018-05-21T16:28:30.418Z,26.60
2018-05-21T16:30:58.828Z,26.60
2018-05-21T16:33:27.040Z,26.50
2018-05-21T16:35:55.232Z,26.50
2018-05-21T16:38:23.564Z,26.30
2018-05-21T16:40:52.398Z,26.30
2018-05-21T16:43:20.900Z,26.40
2018-05-21T16:45:49.884Z,26.50
2018-05-21T16:48:18.159Z,26.50
2018-05-21T16:50:46.242Z,26.50
2018-05-21T16:53:14.740Z,26.40
2018-05-21T16:55:43.713Z,26.50
2018-05-21T16:58:11.921Z,26.60
2018-05-21T17:00:40.041Z,26.70
2018-05-21T17:03:08.176Z,26.70
2018-05-21T17:05:36.399Z,26.70
2018-05-21T17:08:04.514Z,26.50
2018-05-21T17:10:32.695Z,26.20
2018-05-21T17:13:00.781Z,26.10
2018-05-21T17:15:29.141Z,26.20
2018-05-21T17:17:57.472Z,26.40
2018-05-21T17:20:27.470Z,26.50
2018-05-21T17:22:56.215Z,26.50
2018-05-21T17:25:24.335Z,26.30
2018-05-21T17:27:54.057Z,26.40
2018-05-21T17:30:22.691Z,26.30
2018-05-21T17:32:51.311Z,26.30
2018-05-21T17:35:21.623Z,26.30
2018-05-21T17:37:50.763Z,26.20
2018-05-21T17:40:18.976Z,26.10
2018-05-21T17:42:47.508Z,25.90
2018-05-21T17:45:15.686Z,25.80
2018-05-21T17:47:43.849Z,25.80
2018-05-21T17:50:12.915Z,25.60
2018-05-21T17:52:41.772Z,25.50
2018-05-21T17:55:11.573Z,25.30
2018-05-21T17:57:40.008Z,25.20
2018-05-21T18:00:08.111Z,25.00
2018-05-21T18:02:36.670Z,24.90
2018-05-21T18:05:04.887Z,24.70
2018-05-21T18:07:34.120Z,24.60
2018-05-21T18:10:02.416Z,24.40
2018-05-21T18:12:31.488Z,24.40
2018-05-21T18:14:59.602Z,24.20
2018-05-21T18:17:28.752Z,24.10
2018-05-21T18:19:56.852Z,24.00
2018-05-21T18:22:28.919Z,23.90
2018-05-21T18:24:57.176Z,23.80
2018-05-21T18:27:25.537Z,23.70
2018-05-21T18:29:54.301Z,23.70
2018-05-21T18:32:23.176Z,23.60
2018-05-21T18:34:52.074Z,23.50
2018-05-21T18:37:20.369Z,23.50
2018-05-21T18:39:49.265Z,23.40
2018-05-21T18:42:18.327Z,23.30
2018-05-21T18:44:46.496Z,23.20
2018-05-21T18:47:14.602Z,23.20
2018-05-21T18:49:43.381Z,23.10
2018-05-21T18:52:11.478Z,23.00
2018-05-21T18:54:40.323Z,23.00
2018-05-21T18:57:09.467Z,22.90
2018-05-21T18:59:37.570Z,22.80
2018-05-21T19:02:06.350Z,22.80
2018-05-21T19:04:35.417Z,22.80
2018-05-21T19:07:03.684Z,22.70
2018-05-21T19:09:31.808Z,22.60
2018-05-21T19:11:59.881Z,22.50
2018-05-21T19:14:28.087Z,22.50
2018-05-21T19:16:56.939Z,22.40
2018-05-21T19:19:25.804Z,22.30
2018-05-21T19:21:53.918Z,22.30
2018-05-21T19:24:22.029Z,22.20
2018-05-21T19:26:50.512Z,22.10
2018-05-21T19:29:18.540Z,22.00
2018-05-21T19:31:46.780Z,22.00
2018-05-21T19:34:14.974Z,21.80
2018-05-21T19:36:43.069Z,21.80
2018-05-21T19:39:11.145Z,21.70
2018-05-21T19:41:39.256Z,21.70
2018-05-21T19:44:08.250Z,21.60
2018-05-21T19:46:36.586Z,21.50
2018-05-21T19:49:06.422Z,21.40
2018-05-21T19:51:34.522Z,21.40
2018-05-21T19:54:02.609Z,21.30
2018-05-21T19:56:31.707Z,21.40
2018-05-21T19:59:00.437Z,21.20
2018-05-21T20:01:28.585Z,21.10
2018-05-21T20:03:58.513Z,20.80
2018-05-21T20:06:26.756Z,20.80
2018-05-21T20:08:54.889Z,20.70
2018-05-21T20:11:23.224Z,20.80
2018-05-21T20:13:52.093Z,20.80
2018-05-21T20:16:20.327Z,20.60
2018-05-21T20:18:48.424Z,20.50
2018-05-21T20:21:16.955Z,20.60
2018-05-21T20:23:45.821Z,20.50
2018-05-21T20:26:14.125Z,20.50
2018-05-21T20:28:42.236Z,20.50
2018-05-21T20:31:10.492Z,20.60
2018-05-21T20:33:39.278Z,20.70
2018-05-21T20:36:07.557Z,20.70
2018-05-21T20:38:35.868Z,20.60
2018-05-21T20:41:03.965Z,20.60
2018-05-21T20:43:32.898Z,20.60
2018-05-21T20:46:01.191Z,20.40
2018-05-21T20:48:30.256Z,20.30
2018-05-21T20:50:58.454Z,20.40
2018-05-21T20:53:28.330Z,20.50
2018-05-21T20:55:58.292Z,20.50
2018-05-21T20:58:26.515Z,20.50
2018-05-21T21:00:55.441Z,20.50
2018-05-21T21:03:25.215Z,20.50
2018-05-21T21:05:54.301Z,20.40
2018-05-21T21:08:22.423Z,20.30
2018-05-21T21:10:50.537Z,20.30
2018-05-21T21:13:19.458Z,20.10
2018-05-21T21:15:49.495Z,20.00
2018-05-21T21:18:19.229Z,20.00
2018-05-21T21:20:49.141Z,19.90
2018-05-21T21:23:17.397Z,19.70
2018-05-21T21:25:47.320Z,19.50
2018-05-21T21:28:15.655Z,19.30
2018-05-21T21:30:43.779Z,19.10
2018-05-21T21:33:11.932Z,18.90
2018-05-21T21:35:40.865Z,18.80
2018-05-21T21:38:08.977Z,18.60
2018-05-21T21:40:37.259Z,18.40
2018-05-21T21:43:06.536Z,18.30
2018-05-21T21:45:34.677Z,18.30
2018-05-21T21:48:03.105Z,18.40
2018-05-21T21:50:31.392Z,18.30
2018-05-21T21:53:00.436Z,18.40
2018-05-21T21:55:28.520Z,18.60
2018-05-21T21:57:56.947Z,18.60
2018-05-21T22:00:25.943Z,18.90
2018-05-21T22:02:54.016Z,19.20
2018-05-21T22:05:22.272Z,19.20
2018-05-21T22:07:50.341Z,19.30
2018-05-21T22:10:19.473Z,19.30
2018-05-21T22:12:51.135Z,19.00
2018-05-21T22:15:19.224Z,18.80
2018-05-21T22:17:47.469Z,19.10
2018-05-21T22:20:15.551Z,18.60
2018-05-21T22:22:43.677Z,18.30
2018-05-21T22:25:12.422Z,18.20
2018-05-21T22:27:40.500Z,18.10
2018-05-21T22:30:09.625Z,18.20
2018-05-21T22:32:37.736Z,18.30
2018-05-21T22:35:05.828Z,18.10
2018-05-21T22:37:33.928Z,18.40
2018-05-21T22:40:01.997Z,18.30
2018-05-21T22:42:33.264Z,18.40
2018-05-21T22:45:01.506Z,18.60
2018-05-21T22:47:29.592Z,18.70
2018-05-21T22:49:59.479Z,18.60
2018-05-21T22:52:27.721Z,18.50
2018-05-21T22:54:57.524Z,18.40
2018-05-21T22:57:27.284Z,18.10
2018-05-21T22:59:57.853Z,17.80
2018-05-21T23:02:26.026Z,18.10
2018-05-21T23:04:54.376Z,18.40
2018-05-21T23:07:22.624Z,18.50
2018-05-21T23:09:50.721Z,18.60
2018-05-21T23:12:19.807Z,18.70
2018-05-21T23:14:47.869Z,18.60
2018-05-21T23:17:15.973Z,18.60
2018-05-21T23:19:44.091Z,18.40
2018-05-21T23:22:13.664Z,18.20
2018-05-21T23:24:42.101Z,18.20
2018-05-21T23:27:10.596Z,18.40
2018-05-21T23:29:41.572Z,18.40
2018-05-21T23:32:09.829Z,18.10
2018-05-21T23:34:38.616Z,18.40
2018-05-21T23:37:08.079Z,18.50
2018-05-21T23:39:36.912Z,18.40
2018-05-21T23:42:05.268Z,18.30
2018-05-21T23:44:34.064Z,18.30
2018-05-21T23:47:02.153Z,18.40
2018-05-21T23:49:31.295Z,18.10
2018-05-21T23:52:00.126Z,17.90
2018-05-21T23:54:28.614Z,17.80
2018-05-21T23:56:56.720Z,17.90
2018-05-21T23:59:24.913Z,18.20
